KAOO/AOO METAR and TAF weather

Enter ICAO airport designator
Station Type Date Time Source
KAOO METAR 2018/07/21 11:43 UTC NOAA

KAOO 211143Z AUTO 12007KT 10SM OVC014 21/17 A3000 RMK AO2 T02060167


Station Type Date Time Source
KAOO Decoded METAR 2018/07/21 11:43 UTC NOAA

ALTOONA-BLAIR COUNTY AIRPORT, PA, United States (KAOO) 40-18N 78-19W 455M
Jul 21, 2018 - 07:43 AM EDT / 2018.07.21 1143 UTC
Wind: from the ESE (120 degrees) at 8 MPH (7 KT):0
Visibility: 10 mile(s):0
Sky conditions: overcast
Temperature: 69.1 F (20.6 C)
Dew Point: 62.1 F (16.7 C)
Relative Humidity: 78%
Pressure (altimeter): 30 in. Hg (1015 hPa)
ob: KAOO 211143Z AUTO 12007KT 10SM OVC014 21/17 A3000 RMK AO2 T02060167
cycle: 11

Station Type Date Time Source
KAOO TAF 2018/07/21 10:36 UTC NOAA

TAF
AMD KAOO 210932Z 2110/2206 14008KT P6SM BKN025
FM211600 14010G20KT P6SM VCSH OVC030
FM212000 11008KT 6SM -RA OVC025
FM220000 05005KT 5SM RA OVC015


Example: see airport list